sensor_id;sensor_type;location;lat;lon;timestamp;temperature;humidity
12006;DHT22;6062;47.294;12.182;2023-04-01T00:00:53;2.80;60.30
12006;DHT22;6062;47.294;12.182;2023-04-01T00:03:20;2.80;60.30
12006;DHT22;6062;47.294;12.182;2023-04-01T00:05:46;2.80;60.20
12006;DHT22;6062;47.294;12.182;2023-04-01T00:08:12;2.80;60.50
12006;DHT22;6062;47.294;12.182;2023-04-01T00:10:38;2.80;60.60
12006;DHT22;6062;47.294;12.182;2023-04-01T00:13:04;2.80;60.90
12006;DHT22;6062;47.294;12.182;2023-04-01T00:15:30;2.80;61.00
12006;DHT22;6062;47.294;12.182;2023-04-01T00:17:56;2.80;61.10
12006;DHT22;6062;47.294;12.182;2023-04-01T00:20:22;2.80;61.30
12006;DHT22;6062;47.294;12.182;2023-04-01T00:22:48;2.80;61.60
12006;DHT22;6062;47.294;12.182;2023-04-01T00:25:14;2.80;61.70
12006;DHT22;6062;47.294;12.182;2023-04-01T00:27:40;2.80;61.80
12006;DHT22;6062;47.294;12.182;2023-04-01T00:30:06;2.90;61.90
12006;DHT22;6062;47.294;12.182;2023-04-01T00:32:33;2.90;62.00
12006;DHT22;6062;47.294;12.182;2023-04-01T00:35:00;2.90;62.20
12006;DHT22;6062;47.294;12.182;2023-04-01T00:37:27;2.90;62.30
12006;DHT22;6062;47.294;12.182;2023-04-01T00:39:54;2.90;62.00
12006;DHT22;6062;47.294;12.182;2023-04-01T00:42:20;3.00;62.00
12006;DHT22;6062;47.294;12.182;2023-04-01T00:44:51;3.00;61.80
12006;DHT22;6062;47.294;12.182;2023-04-01T00:47:18;3.00;61.70
12006;DHT22;6062;47.294;12.182;2023-04-01T00:49:46;3.00;61.70
12006;DHT22;6062;47.294;12.182;2023-04-01T00:52:18;3.00;61.60
12006;DHT22;6062;47.294;12.182;2023-04-01T00:54:55;3.00;61.60
12006;DHT22;6062;47.294;12.182;2023-04-01T00:57:29;3.00;61.90
12006;DHT22;6062;47.294;12.182;2023-04-01T01:00:00;3.00;61.90
12006;DHT22;6062;47.294;12.182;2023-04-01T01:02:26;3.00;62.00
12006;DHT22;6062;47.294;12.182;2023-04-01T01:04:52;3.00;61.90
12006;DHT22;6062;47.294;12.182;2023-04-01T01:07:48;3.00;61.70
12006;DHT22;6062;47.294;12.182;2023-04-01T01:10:35;3.00;61.40
12006;DHT22;6062;47.294;12.182;2023-04-01T01:15:59;3.00;61.20
12006;DHT22;6062;47.294;12.182;2023-04-01T01:18:44;3.00;61.20
12006;DHT22;6062;47.294;12.182;2023-04-01T01:28:09;3.00;61.40
12006;DHT22;6062;47.294;12.182;2023-04-01T01:36:33;3.00;60.40
12006;DHT22;6062;47.294;12.182;2023-04-01T01:39:02;2.90;60.70
12006;DHT22;6062;47.294;12.182;2023-04-01T01:41:31;2.90;60.70
12006;DHT22;6062;47.294;12.182;2023-04-01T01:43:59;2.90;60.70
12006;DHT22;6062;47.294;12.182;2023-04-01T01:46:29;2.90;60.60
12006;DHT22;6062;47.294;12.182;2023-04-01T01:48:57;2.90;60.70
12006;DHT22;6062;47.294;12.182;2023-04-01T01:51:27;2.90;60.40
12006;DHT22;6062;47.294;12.182;2023-04-01T01:53:53;2.90;60.10
12006;DHT22;6062;47.294;12.182;2023-04-01T01:56:22;2.90;60.20
12006;DHT22;6062;47.294;12.182;2023-04-01T01:58:58;2.80;60.20
12006;DHT22;6062;47.294;12.182;2023-04-01T02:01:31;2.80;60.00
12006;DHT22;6062;47.294;12.182;2023-04-01T02:04:00;2.80;59.50
12006;DHT22;6062;47.294;12.182;2023-04-01T02:06:29;2.80;59.30
12006;DHT22;6062;47.294;12.182;2023-04-01T02:11:46;2.80;59.80
12006;DHT22;6062;47.294;12.182;2023-04-01T02:14:17;2.80;59.60
12006;DHT22;6062;47.294;12.182;2023-04-01T02:16:55;2.80;59.90
12006;DHT22;6062;47.294;12.182;2023-04-01T02:19:26;2.90;60.00
12006;DHT22;6062;47.294;12.182;2023-04-01T02:22:02;2.90;60.00
12006;DHT22;6062;47.294;12.182;2023-04-01T02:24:31;2.80;59.10
12006;DHT22;6062;47.294;12.182;2023-04-01T02:27:00;2.90;59.50
12006;DHT22;6062;47.294;12.182;2023-04-01T02:29:27;2.90;59.30
12006;DHT22;6062;47.294;12.182;2023-04-01T02:31:53;2.90;59.30
12006;DHT22;6062;47.294;12.182;2023-04-01T02:34:21;2.90;59.10
12006;DHT22;6062;47.294;12.182;2023-04-01T02:36:50;2.90;59.40
12006;DHT22;6062;47.294;12.182;2023-04-01T02:39:16;2.90;59.70
12006;DHT22;6062;47.294;12.182;2023-04-01T02:41:44;2.90;59.80
12006;DHT22;6062;47.294;12.182;2023-04-01T02:44:12;2.90;59.90
12006;DHT22;6062;47.294;12.182;2023-04-01T02:46:40;2.90;60.00
12006;DHT22;6062;47.294;12.182;2023-04-01T02:49:06;2.90;59.90
12006;DHT22;6062;47.294;12.182;2023-04-01T02:51:32;3.00;59.40
12006;DHT22;6062;47.294;12.182;2023-04-01T02:53:58;3.00;59.20
12006;DHT22;6062;47.294;12.182;2023-04-01T02:56:24;3.00;59.00
12006;DHT22;6062;47.294;12.182;2023-04-01T02:58:51;2.90;58.70
12006;DHT22;6062;47.294;12.182;2023-04-01T03:01:17;2.90;59.00
12006;DHT22;6062;47.294;12.182;2023-04-01T03:03:43;2.90;59.30
12006;DHT22;6062;47.294;12.182;2023-04-01T03:06:11;2.90;59.30
12006;DHT22;6062;47.294;12.182;2023-04-01T03:08:39;2.90;59.20
12006;DHT22;6062;47.294;12.182;2023-04-01T03:11:05;2.80;59.20
12006;DHT22;6062;47.294;12.182;2023-04-01T03:13:32;2.80;59.40
12006;DHT22;6062;47.294;12.182;2023-04-01T03:15:58;2.80;59.50
12006;DHT22;6062;47.294;12.182;2023-04-01T03:18:24;2.80;59.70
12006;DHT22;6062;47.294;12.182;2023-04-01T03:20:50;2.80;60.00
12006;DHT22;6062;47.294;12.182;2023-04-01T03:23:16;2.80;60.20
12006;DHT22;6062;47.294;12.182;2023-04-01T03:25:43;2.80;60.50
12006;DHT22;6062;47.294;12.182;2023-04-01T03:28:08;2.80;60.80
12006;DHT22;6062;47.294;12.182;2023-04-01T03:30:35;2.80;61.00
12006;DHT22;6062;47.294;12.182;2023-04-01T03:33:00;2.80;61.40
12006;DHT22;6062;47.294;12.182;2023-04-01T03:35:27;2.80;61.60
12006;DHT22;6062;47.294;12.182;2023-04-01T03:37:54;2.80;61.70
12006;DHT22;6062;47.294;12.182;2023-04-01T03:40:20;2.80;61.90
12006;DHT22;6062;47.294;12.182;2023-04-01T03:42:47;2.80;62.10
12006;DHT22;6062;47.294;12.182;2023-04-01T03:45:13;2.80;62.20
12006;DHT22;6062;47.294;12.182;2023-04-01T03:47:39;2.80;62.50
12006;DHT22;6062;47.294;12.182;2023-04-01T03:50:06;2.80;62.80
12006;DHT22;6062;47.294;12.182;2023-04-01T03:52:33;2.80;63.10
12006;DHT22;6062;47.294;12.182;2023-04-01T03:55:00;2.80;63.30
12006;DHT22;6062;47.294;12.182;2023-04-01T03:57:27;2.70;63.50
12006;DHT22;6062;47.294;12.182;2023-04-01T03:59:53;2.70;63.60
12006;DHT22;6062;47.294;12.182;2023-04-01T04:02:19;2.70;63.70
12006;DHT22;6062;47.294;12.182;2023-04-01T04:04:44;2.70;63.80
12006;DHT22;6062;47.294;12.182;2023-04-01T04:07:11;2.70;63.90
12006;DHT22;6062;47.294;12.182;2023-04-01T04:09:37;2.70;64.00
12006;DHT22;6062;47.294;12.182;2023-04-01T04:12:03;2.60;64.00
12006;DHT22;6062;47.294;12.182;2023-04-01T04:14:30;2.60;64.00
12006;DHT22;6062;47.294;12.182;2023-04-01T04:16:57;2.60;64.00
12006;DHT22;6062;47.294;12.182;2023-04-01T04:19:22;2.50;63.90
12006;DHT22;6062;47.294;12.182;2023-04-01T04:21:48;2.50;63.90
12006;DHT22;6062;47.294;12.182;2023-04-01T04:24:14;2.50;64.10
12006;DHT22;6062;47.294;12.182;2023-04-01T04:26:39;2.40;63.30
12006;DHT22;6062;47.294;12.182;2023-04-01T04:29:05;2.40;63.20
12006;DHT22;6062;47.294;12.182;2023-04-01T04:31:31;2.30;63.20
12006;DHT22;6062;47.294;12.182;2023-04-01T04:33:59;2.30;63.60
12006;DHT22;6062;47.294;12.182;2023-04-01T04:36:26;2.30;64.10
12006;DHT22;6062;47.294;12.182;2023-04-01T04:38:52;2.20;64.50
12006;DHT22;6062;47.294;12.182;2023-04-01T04:41:18;2.20;64.90
12006;DHT22;6062;47.294;12.182;2023-04-01T04:43:52;2.20;65.30
12006;DHT22;6062;47.294;12.182;2023-04-01T04:46:20;2.10;65.80
12006;DHT22;6062;47.294;12.182;2023-04-01T04:48:46;2.10;65.70
12006;DHT22;6062;47.294;12.182;2023-04-01T04:51:16;2.00;65.60
12006;DHT22;6062;47.294;12.182;2023-04-01T04:53:44;2.00;65.50
12006;DHT22;6062;47.294;12.182;2023-04-01T04:56:11;2.00;65.50
12006;DHT22;6062;47.294;12.182;2023-04-01T04:58:38;2.00;65.30
12006;DHT22;6062;47.294;12.182;2023-04-01T05:01:09;2.00;64.80
12006;DHT22;6062;47.294;12.182;2023-04-01T05:03:36;2.00;64.70
12006;DHT22;6062;47.294;12.182;2023-04-01T05:06:02;2.00;64.70
12006;DHT22;6062;47.294;12.182;2023-04-01T05:08:29;2.00;64.80
12006;DHT22;6062;47.294;12.182;2023-04-01T05:10:54;2.10;65.60
12006;DHT22;6062;47.294;12.182;2023-04-01T05:13:20;2.10;65.00
12006;DHT22;6062;47.294;12.182;2023-04-01T05:15:46;2.10;65.00
12006;DHT22;6062;47.294;12.182;2023-04-01T05:18:12;2.20;64.70
12006;DHT22;6062;47.294;12.182;2023-04-01T05:20:37;2.20;64.50
12006;DHT22;6062;47.294;12.182;2023-04-01T05:23:03;2.20;64.20
12006;DHT22;6062;47.294;12.182;2023-04-01T05:25:29;2.20;64.30
12006;DHT22;6062;47.294;12.182;2023-04-01T05:27:55;2.30;64.60
12006;DHT22;6062;47.294;12.182;2023-04-01T05:30:21;2.30;64.60
12006;DHT22;6062;47.294;12.182;2023-04-01T05:32:46;2.30;64.60
12006;DHT22;6062;47.294;12.182;2023-04-01T05:35:12;2.40;64.50
12006;DHT22;6062;47.294;12.182;2023-04-01T05:37:38;2.50;64.60
12006;DHT22;6062;47.294;12.182;2023-04-01T05:40:04;2.50;64.50
12006;DHT22;6062;47.294;12.182;2023-04-01T05:42:30;2.60;64.50
12006;DHT22;6062;47.294;12.182;2023-04-01T05:44:56;2.70;64.50
12006;DHT22;6062;47.294;12.182;2023-04-01T05:47:22;2.80;64.40
12006;DHT22;6062;47.294;12.182;2023-04-01T05:49:48;2.90;64.30
12006;DHT22;6062;47.294;12.182;2023-04-01T05:52:14;2.90;64.10
12006;DHT22;6062;47.294;12.182;2023-04-01T05:54:40;3.00;64.10
12006;DHT22;6062;47.294;12.182;2023-04-01T05:57:05;3.10;64.10
12006;DHT22;6062;47.294;12.182;2023-04-01T05:59:31;3.10;64.00
12006;DHT22;6062;47.294;12.182;2023-04-01T06:01:57;3.20;64.00
12006;DHT22;6062;47.294;12.182;2023-04-01T06:04:24;3.30;63.90
12006;DHT22;6062;47.294;12.182;2023-04-01T06:06:50;3.40;63.90
12006;DHT22;6062;47.294;12.182;2023-04-01T06:09:19;3.50;63.80
12006;DHT22;6062;47.294;12.182;2023-04-01T06:12:15;3.50;63.60
12006;DHT22;6062;47.294;12.182;2023-04-01T06:15:14;3.70;63.70
12006;DHT22;6062;47.294;12.182;2023-04-01T06:23:37;4.00;62.60
12006;DHT22;6062;47.294;12.182;2023-04-01T06:26:41;4.10;62.60
12006;DHT22;6062;47.294;12.182;2023-04-01T06:47:01;5.10;62.60
12006;DHT22;6062;47.294;12.182;2023-04-01T06:50:17;5.40;63.40
12006;DHT22;6062;47.294;12.182;2023-04-01T06:52:48;5.70;63.30
12006;DHT22;6062;47.294;12.182;2023-04-01T06:55:35;6.00;62.10
12006;DHT22;6062;47.294;12.182;2023-04-01T06:58:06;6.20;61.20
12006;DHT22;6062;47.294;12.182;2023-04-01T07:00:53;6.40;60.30
12006;DHT22;6062;47.294;12.182;2023-04-01T07:03:44;6.60;58.70
12006;DHT22;6062;47.294;12.182;2023-04-01T07:06:30;6.70;57.40
12006;DHT22;6062;47.294;12.182;2023-04-01T07:09:04;6.70;58.00
12006;DHT22;6062;47.294;12.182;2023-04-01T07:11:35;6.70;58.40
12006;DHT22;6062;47.294;12.182;2023-04-01T07:17:12;6.90;59.80
12006;DHT22;6062;47.294;12.182;2023-04-01T07:19:52;7.10;59.10
12006;DHT22;6062;47.294;12.182;2023-04-01T07:22:39;7.30;58.50
12006;DHT22;6062;47.294;12.182;2023-04-01T07:25:18;7.40;57.70
12006;DHT22;6062;47.294;12.182;2023-04-01T07:27:48;7.50;57.20
12006;DHT22;6062;47.294;12.182;2023-04-01T07:30:18;7.60;56.40
12006;DHT22;6062;47.294;12.182;2023-04-01T07:33:08;7.60;55.90
12006;DHT22;6062;47.294;12.182;2023-04-01T07:47:19;8.90;58.40
12006;DHT22;6062;47.294;12.182;2023-04-01T07:58:09;11.90;55.30
12006;DHT22;6062;47.294;12.182;2023-04-01T08:07:00;13.80;54.60
12006;DHT22;6062;47.294;12.182;2023-04-01T08:09:44;14.60;54.10
12006;DHT22;6062;47.294;12.182;2023-04-01T08:12:51;15.30;53.60
12006;DHT22;6062;47.294;12.182;2023-04-01T08:21:46;17.40;44.70
12006;DHT22;6062;47.294;12.182;2023-04-01T08:24:39;17.80;42.10
12006;DHT22;6062;47.294;12.182;2023-04-01T08:27:34;18.10;42.60
12006;DHT22;6062;47.294;12.182;2023-04-01T08:30:42;18.40;42.90
12006;DHT22;6062;47.294;12.182;2023-04-01T08:33:17;18.70;39.90
12006;DHT22;6062;47.294;12.182;2023-04-01T08:36:02;18.90;40.10
12006;DHT22;6062;47.294;12.182;2023-04-01T08:38:51;19.00;38.90
12006;DHT22;6062;47.294;12.182;2023-04-01T08:47:54;19.20;37.80
12006;DHT22;6062;47.294;12.182;2023-04-01T08:50:58;19.10;37.50
12006;DHT22;6062;47.294;12.182;2023-04-01T09:08:31;19.70;36.50
12006;DHT22;6062;47.294;12.182;2023-04-01T09:19:56;19.90;35.30
12006;DHT22;6062;47.294;12.182;2023-04-01T09:25:29;20.10;32.80
12006;DHT22;6062;47.294;12.182;2023-04-01T09:31:27;20.10;33.30
12006;DHT22;6062;47.294;12.182;2023-04-01T09:37:25;20.10;31.60
12006;DHT22;6062;47.294;12.182;2023-04-01T09:49:09;19.20;30.50
12006;DHT22;6062;47.294;12.182;2023-04-01T10:01:34;19.30;32.40
12006;DHT22;6062;47.294;12.182;2023-04-01T10:16:57;19.10;29.10
12006;DHT22;6062;47.294;12.182;2023-04-01T10:19:50;18.90;29.80
12006;DHT22;6062;47.294;12.182;2023-04-01T10:25:34;18.70;29.70
12006;DHT22;6062;47.294;12.182;2023-04-01T10:31:10;18.50;29.80
12006;DHT22;6062;47.294;12.182;2023-04-01T10:36:56;18.60;30.30
12006;DHT22;6062;47.294;12.182;2023-04-01T10:39:33;18.80;29.60
12006;DHT22;6062;47.294;12.182;2023-04-01T10:45:33;18.90;28.10
12006;DHT22;6062;47.294;12.182;2023-04-01T11:02:08;16.80;29.70
12006;DHT22;6062;47.294;12.182;2023-04-01T11:22:33;17.90;29.70
12006;DHT22;6062;47.294;12.182;2023-04-01T11:25:40;18.10;30.10
12006;DHT22;6062;47.294;12.182;2023-04-01T11:43:02;17.90;28.70
12006;DHT22;6062;47.294;12.182;2023-04-01T11:51:44;17.00;28.10
12006;DHT22;6062;47.294;12.182;2023-04-01T12:00:46;15.50;29.20
12006;DHT22;6062;47.294;12.182;2023-04-01T12:06:25;14.40;30.00
12006;DHT22;6062;47.294;12.182;2023-04-01T12:09:15;13.90;30.10
12006;DHT22;6062;47.294;12.182;2023-04-01T12:15:25;13.00;31.50
12006;DHT22;6062;47.294;12.182;2023-04-01T12:21:13;12.30;33.60
12006;DHT22;6062;47.294;12.182;2023-04-01T12:27:05;11.90;34.70
12006;DHT22;6062;47.294;12.182;2023-04-01T12:30:24;11.70;34.20
12006;DHT22;6062;47.294;12.182;2023-04-01T12:35:55;11.30;35.70
12006;DHT22;6062;47.294;12.182;2023-04-01T12:42:16;11.10;35.70
12006;DHT22;6062;47.294;12.182;2023-04-01T12:48:16;10.70;37.50
12006;DHT22;6062;47.294;12.182;2023-04-01T12:51:08;10.70;37.00
12006;DHT22;6062;47.294;12.182;2023-04-01T12:54:08;10.60;37.30
12006;DHT22;6062;47.294;12.182;2023-04-01T12:57:03;10.50;37.40
12006;DHT22;6062;47.294;12.182;2023-04-01T13:02:36;10.50;38.50
12006;DHT22;6062;47.294;12.182;2023-04-01T13:08:43;10.50;38.70
12006;DHT22;6062;47.294;12.182;2023-04-01T13:17:07;10.70;38.90
12006;DHT22;6062;47.294;12.182;2023-04-01T13:28:28;10.80;39.10
12006;DHT22;6062;47.294;12.182;2023-04-01T13:40:36;10.90;39.80
12006;DHT22;6062;47.294;12.182;2023-04-01T13:43:23;10.90;39.70
12006;DHT22;6062;47.294;12.182;2023-04-01T13:52:46;11.10;39.50
12006;DHT22;6062;47.294;12.182;2023-04-01T14:01:42;11.40;39.60
12006;DHT22;6062;47.294;12.182;2023-04-01T14:04:34;11.40;40.00
12006;DHT22;6062;47.294;12.182;2023-04-01T14:10:17;11.60;41.00
12006;DHT22;6062;47.294;12.182;2023-04-01T14:13:18;11.60;40.80
12006;DHT22;6062;47.294;12.182;2023-04-01T14:18:57;11.70;41.90
12006;DHT22;6062;47.294;12.182;2023-04-01T14:21:41;11.70;42.50
12006;DHT22;6062;47.294;12.182;2023-04-01T14:24:36;11.70;42.00
12006;DHT22;6062;47.294;12.182;2023-04-01T14:32:54;11.60;42.00
12006;DHT22;6062;47.294;12.182;2023-04-01T14:50:30;10.20;42.20
12006;DHT22;6062;47.294;12.182;2023-04-01T14:58:10;9.60;44.20
12006;DHT22;6062;47.294;12.182;2023-04-01T15:16:06;7.70;47.70
12006;DHT22;6062;47.294;12.182;2023-04-01T15:19:15;7.40;48.20
12006;DHT22;6062;47.294;12.182;2023-04-01T15:27:57;7.10;50.30
12006;DHT22;6062;47.294;12.182;2023-04-01T15:33:52;7.00;50.20
12006;DHT22;6062;47.294;12.182;2023-04-01T15:36:42;6.90;50.40
12006;DHT22;6062;47.294;12.182;2023-04-01T15:42:40;6.80;50.60
12006;DHT22;6062;47.294;12.182;2023-04-01T15:45:15;6.80;50.60
12006;DHT22;6062;47.294;12.182;2023-04-01T15:48:01;6.70;50.30
12006;DHT22;6062;47.294;12.182;2023-04-01T15:53:51;6.60;49.90
12006;DHT22;6062;47.294;12.182;2023-04-01T16:02:56;6.30;50.40
12006;DHT22;6062;47.294;12.182;2023-04-01T16:22:38;6.00;51.30
12006;DHT22;6062;47.294;12.182;2023-04-01T16:28:28;6.10;51.90
12006;DHT22;6062;47.294;12.182;2023-04-01T16:34:14;6.20;51.50
12006;DHT22;6062;47.294;12.182;2023-04-01T16:37:03;6.30;51.20
12006;DHT22;6062;47.294;12.182;2023-04-01T16:42:51;6.40;50.90
12006;DHT22;6062;47.294;12.182;2023-04-01T16:49:30;6.50;50.40
12006;DHT22;6062;47.294;12.182;2023-04-01T16:57:36;6.50;50.20
12006;DHT22;6062;47.294;12.182;2023-04-01T17:03:28;6.40;50.40
12006;DHT22;6062;47.294;12.182;2023-04-01T17:08:53;6.30;50.20
12006;DHT22;6062;47.294;12.182;2023-04-01T17:12:03;6.30;50.30
12006;DHT22;6062;47.294;12.182;2023-04-01T17:20:31;6.00;50.80
12006;DHT22;6062;47.294;12.182;2023-04-01T17:23:36;6.00;51.10
12006;DHT22;6062;47.294;12.182;2023-04-01T17:29:15;5.80;51.50
12006;DHT22;6062;47.294;12.182;2023-04-01T17:34:46;5.70;51.40
12006;DHT22;6062;47.294;12.182;2023-04-01T17:43:09;5.40;52.30
12006;DHT22;6062;47.294;12.182;2023-04-01T17:49:23;5.20;52.30
12006;DHT22;6062;47.294;12.182;2023-04-01T17:58:18;5.00;52.80
12006;DHT22;6062;47.294;12.182;2023-04-01T18:01:12;4.90;53.20
12006;DHT22;6062;47.294;12.182;2023-04-01T18:04:17;4.90;53.10
12006;DHT22;6062;47.294;12.182;2023-04-01T18:10:26;4.80;53.20
12006;DHT22;6062;47.294;12.182;2023-04-01T18:16:40;4.80;52.70
12006;DHT22;6062;47.294;12.182;2023-04-01T18:23:06;4.60;52.70
12006;DHT22;6062;47.294;12.182;2023-04-01T18:25:42;4.50;52.90
12006;DHT22;6062;47.294;12.182;2023-04-01T18:36:47;4.30;53.20
12006;DHT22;6062;47.294;12.182;2023-04-01T18:39:37;4.20;53.50
12006;DHT22;6062;47.294;12.182;2023-04-01T18:42:24;4.20;53.40
12006;DHT22;6062;47.294;12.182;2023-04-01T18:45:28;4.20;53.40
12006;DHT22;6062;47.294;12.182;2023-04-01T18:51:01;4.00;53.50
12006;DHT22;6062;47.294;12.182;2023-04-01T18:56:25;3.90;54.20
12006;DHT22;6062;47.294;12.182;2023-04-01T18:59:23;4.00;54.30
12006;DHT22;6062;47.294;12.182;2023-04-01T19:02:17;3.90;53.90
12006;DHT22;6062;47.294;12.182;2023-04-01T19:07:47;3.90;54.10
12006;DHT22;6062;47.294;12.182;2023-04-01T19:25:37;3.90;53.80
12006;DHT22;6062;47.294;12.182;2023-04-01T19:28:43;4.00;54.10
12006;DHT22;6062;47.294;12.182;2023-04-01T19:34:48;3.90;54.40
12006;DHT22;6062;47.294;12.182;2023-04-01T19:40:38;3.90;54.30
12006;DHT22;6062;47.294;12.182;2023-04-01T19:46:32;3.90;54.60
12006;DHT22;6062;47.294;12.182;2023-04-01T19:49:26;3.90;54.40
12006;DHT22;6062;47.294;12.182;2023-04-01T19:52:20;3.90;54.70
12006;DHT22;6062;47.294;12.182;2023-04-01T20:03:11;3.90;55.00
12006;DHT22;6062;47.294;12.182;2023-04-01T20:09:11;3.90;55.30
12006;DHT22;6062;47.294;12.182;2023-04-01T20:15:06;3.80;55.50
12006;DHT22;6062;47.294;12.182;2023-04-01T20:17:48;3.80;55.40
12006;DHT22;6062;47.294;12.182;2023-04-01T20:20:21;3.80;55.40
12006;DHT22;6062;47.294;12.182;2023-04-01T20:25:57;3.80;55.60
12006;DHT22;6062;47.294;12.182;2023-04-01T20:28:42;3.80;55.40
12006;DHT22;6062;47.294;12.182;2023-04-01T20:31:29;3.80;55.60
12006;DHT22;6062;47.294;12.182;2023-04-01T20:34:26;3.80;55.80
12006;DHT22;6062;47.294;12.182;2023-04-01T20:37:32;3.70;55.90
12006;DHT22;6062;47.294;12.182;2023-04-01T20:40:32;3.70;55.90
12006;DHT22;6062;47.294;12.182;2023-04-01T20:43:22;3.70;56.10
12006;DHT22;6062;47.294;12.182;2023-04-01T20:46:06;3.70;55.90
12006;DHT22;6062;47.294;12.182;2023-04-01T20:51:59;3.60;56.20
12006;DHT22;6062;47.294;12.182;2023-04-01T20:57:57;3.60;56.20
12006;DHT22;6062;47.294;12.182;2023-04-01T21:00:52;3.60;56.20
12006;DHT22;6062;47.294;12.182;2023-04-01T21:03:41;3.50;56.80
12006;DHT22;6062;47.294;12.182;2023-04-01T21:06:17;3.50;56.20
12006;DHT22;6062;47.294;12.182;2023-04-01T21:09:43;3.50;56.20
12006;DHT22;6062;47.294;12.182;2023-04-01T21:12:55;3.50;56.70
12006;DHT22;6062;47.294;12.182;2023-04-01T21:18:47;3.40;56.70
12006;DHT22;6062;47.294;12.182;2023-04-01T21:21:47;3.50;56.60
12006;DHT22;6062;47.294;12.182;2023-04-01T21:39:26;3.40;57.20
12006;DHT22;6062;47.294;12.182;2023-04-01T22:04:10;3.30;57.10
12006;DHT22;6062;47.294;12.182;2023-04-01T22:10:21;3.30;57.10
12006;DHT22;6062;47.294;12.182;2023-04-01T22:12:56;3.30;57.10
12006;DHT22;6062;47.294;12.182;2023-04-01T22:19:01;3.30;56.90
12006;DHT22;6062;47.294;12.182;2023-04-01T22:22:10;3.30;56.90
12006;DHT22;6062;47.294;12.182;2023-04-01T22:25:15;3.30;56.80
12006;DHT22;6062;47.294;12.182;2023-04-01T22:27:50;3.30;57.30
12006;DHT22;6062;47.294;12.182;2023-04-01T22:30:34;3.30;56.60
12006;DHT22;6062;47.294;12.182;2023-04-01T22:35:56;3.20;56.60
12006;DHT22;6062;47.294;12.182;2023-04-01T22:47:57;3.30;56.30
12006;DHT22;6062;47.294;12.182;2023-04-01T22:56:38;3.30;56.30
12006;DHT22;6062;47.294;12.182;2023-04-01T22:59:42;3.30;56.30
12006;DHT22;6062;47.294;12.182;2023-04-01T23:02:25;3.30;56.30
12006;DHT22;6062;47.294;12.182;2023-04-01T23:05:01;3.30;56.10
12006;DHT22;6062;47.294;12.182;2023-04-01T23:11:00;3.30;56.10
12006;DHT22;6062;47.294;12.182;2023-04-01T23:13:34;3.30;55.90
12006;DHT22;6062;47.294;12.182;2023-04-01T23:16:04;3.30;55.70
12006;DHT22;6062;47.294;12.182;2023-04-01T23:18:44;3.30;55.70
12006;DHT22;6062;47.294;12.182;2023-04-01T23:26:59;3.30;56.10
12006;DHT22;6062;47.294;12.182;2023-04-01T23:29:31;3.40;56.10
12006;DHT22;6062;47.294;12.182;2023-04-01T23:32:02;3.40;56.10
12006;DHT22;6062;47.294;12.182;2023-04-01T23:34:35;3.40;56.00
12006;DHT22;6062;47.294;12.182;2023-04-01T23:37:05;3.40;56.10
12006;DHT22;6062;47.294;12.182;2023-04-01T23:39:42;3.40;56.10
12006;DHT22;6062;47.294;12.182;2023-04-01T23:44:45;3.40;56.20
12006;DHT22;6062;47.294;12.182;2023-04-01T23:47:20;3.40;56.10
12006;DHT22;6062;47.294;12.182;2023-04-01T23:49:51;3.40;56.10
12006;DHT22;6062;47.294;12.182;2023-04-01T23:55:22;3.40;56.10
